createdAt,value
2018-08-24T00:01:52.494Z,19.22
2018-08-24T00:04:21.641Z,19.21
2018-08-24T00:06:50.124Z,19.21
2018-08-24T00:09:22.745Z,19.22
2018-08-24T00:11:51.345Z,19.20
2018-08-24T00:14:19.792Z,19.19
2018-08-24T00:16:48.370Z,19.18
2018-08-24T00:19:17.313Z,19.17
2018-08-24T00:21:46.601Z,19.16
2018-08-24T00:24:15.542Z,19.14
2018-08-24T00:26:44.703Z,19.13
2018-08-24T00:29:13.130Z,19.12
2018-08-24T00:31:41.612Z,19.12
2018-08-24T00:34:10.580Z,19.12
2018-08-24T00:36:39.010Z,19.12
2018-08-24T00:39:08.748Z,19.13
2018-08-24T00:41:37.437Z,19.17
2018-08-24T00:44:05.989Z,19.18
2018-08-24T00:46:34.453Z,19.17
2018-08-24T00:49:02.994Z,19.16
2018-08-24T00:51:31.466Z,19.13
2018-08-24T00:53:59.921Z,19.10
2018-08-24T00:56:28.446Z,19.08
2018-08-24T00:58:56.924Z,19.07
2018-08-24T01:01:25.406Z,19.07
2018-08-24T01:03:53.925Z,19.03
2018-08-24T01:06:23.401Z,19.01
2018-08-24T01:08:51.930Z,18.99
2018-08-24T01:11:20.829Z,18.95
2018-08-24T01:13:51.687Z,18.92
2018-08-24T01:16:26.377Z,18.89
2018-08-24T01:18:54.953Z,18.86
2018-08-24T01:21:23.429Z,18.84
2018-08-24T01:23:52.287Z,18.80
2018-08-24T01:26:24.854Z,18.75
2018-08-24T01:28:54.429Z,18.74
2018-08-24T01:31:22.869Z,18.74
2018-08-24T01:33:51.577Z,18.71
2018-08-24T01:36:20.231Z,18.68
2018-08-24T01:38:48.688Z,18.66
2018-08-24T01:41:17.480Z,18.64
2018-08-24T01:43:45.925Z,18.63
2018-08-24T01:46:15.779Z,18.61
2018-08-24T01:48:44.362Z,18.59
2018-08-24T01:51:13.270Z,18.58
2018-08-24T01:53:41.745Z,18.58
2018-08-24T01:56:10.335Z,18.59
2018-08-24T01:58:38.777Z,18.59
2018-08-24T02:01:07.221Z,18.60
2018-08-24T02:03:35.845Z,18.59
2018-08-24T02:06:05.297Z,18.60
2018-08-24T02:08:34.274Z,18.61
2018-08-24T02:11:03.203Z,18.62
2018-08-24T02:13:36.974Z,18.62
2018-08-24T02:16:05.513Z,18.63
2018-08-24T02:18:39.257Z,18.62
2018-08-24T02:21:13.007Z,18.62
2018-08-24T02:23:41.613Z,18.60
2018-08-24T02:26:10.045Z,18.61
2018-08-24T02:28:38.775Z,18.59
2018-08-24T02:31:07.905Z,18.58
2018-08-24T02:33:40.055Z,18.54
2018-08-24T02:36:09.609Z,18.52
2018-08-24T02:38:38.397Z,18.49
2018-08-24T02:41:06.901Z,18.48
2018-08-24T02:43:35.585Z,18.44
2018-08-24T02:46:04.033Z,18.39
2018-08-24T02:48:32.522Z,18.39
2018-08-24T02:51:01.369Z,18.39
2018-08-24T02:53:29.846Z,18.35
2018-08-24T02:55:58.326Z,18.32
2018-08-24T02:58:27.202Z,18.31
2018-08-24T03:00:55.813Z,18.31
2018-08-24T03:03:24.274Z,18.30
2018-08-24T03:05:53.157Z,18.32
2018-08-24T03:08:21.639Z,18.32
2018-08-24T03:10:50.081Z,18.32
2018-08-24T03:13:18.640Z,18.34
2018-08-24T03:15:47.070Z,18.36
2018-08-24T03:18:15.585Z,18.38
2018-08-24T03:20:44.449Z,18.38
2018-08-24T03:23:12.945Z,18.40
2018-08-24T03:25:41.486Z,18.37
2018-08-24T03:28:10.206Z,18.37
2018-08-24T03:30:38.635Z,18.35
2018-08-24T03:33:07.430Z,18.35
2018-08-24T03:35:35.943Z,18.34
2018-08-24T03:38:04.533Z,18.31
2018-08-24T03:40:33.001Z,18.29
2018-08-24T03:43:02.117Z,18.28
2018-08-24T03:45:30.521Z,18.28
2018-08-24T03:47:59.005Z,18.27
2018-08-24T03:50:27.652Z,18.11
2018-08-24T03:52:56.272Z,18.26
2018-08-24T03:55:24.767Z,18.25
2018-08-24T03:57:53.407Z,18.28
2018-08-24T04:00:21.857Z,18.30
2018-08-24T04:02:50.398Z,18.32
2018-08-24T04:05:18.937Z,18.35
2018-08-24T04:07:47.346Z,18.39
2018-08-24T04:10:15.805Z,18.44
2018-08-24T04:12:44.589Z,18.48
2018-08-24T04:15:13.065Z,18.49
2018-08-24T04:17:43.414Z,18.50
2018-08-24T04:20:12.243Z,18.52
2018-08-24T04:22:40.857Z,18.52
2018-08-24T04:25:09.805Z,18.52
2018-08-24T04:27:38.574Z,18.49
2018-08-24T04:30:07.393Z,18.49
2018-08-24T04:32:35.897Z,18.53
2018-08-24T04:35:05.405Z,18.55
2018-08-24T04:37:34.090Z,18.54
2018-08-24T04:40:02.618Z,18.49
2018-08-24T04:42:31.111Z,18.46
2018-08-24T04:44:59.550Z,18.47
2018-08-24T04:47:28.167Z,18.47
2018-08-24T04:49:57.421Z,18.47
2018-08-24T04:52:25.939Z,18.42
2018-08-24T04:54:54.382Z,18.39
2018-08-24T04:57:23.085Z,18.42
2018-08-24T04:59:51.525Z,18.47
2018-08-24T05:02:19.978Z,18.48
2018-08-24T05:04:48.562Z,18.45
2018-08-24T05:07:16.986Z,18.46
2018-08-24T05:09:45.745Z,18.48
2018-08-24T05:12:14.573Z,18.47
2018-08-24T05:14:43.096Z,18.48
2018-08-24T05:17:11.577Z,18.51
2018-08-24T05:19:46.665Z,18.55
2018-08-24T05:22:15.100Z,18.57
2018-08-24T05:24:44.081Z,18.57
2018-08-24T05:27:12.897Z,18.60
2018-08-24T05:29:41.393Z,18.60
2018-08-24T05:32:09.973Z,18.62
2018-08-24T05:34:38.734Z,18.64
2018-08-24T05:37:07.593Z,18.67
2018-08-24T05:39:36.001Z,18.70
2018-08-24T05:42:04.637Z,18.76
2018-08-24T05:44:33.132Z,18.81
2018-08-24T05:47:01.593Z,18.86
2018-08-24T05:49:30.182Z,18.90
2018-08-24T05:51:58.702Z,18.97
2018-08-24T05:54:27.132Z,19.02
2018-08-24T05:56:55.621Z,19.07
2018-08-24T05:59:24.552Z,19.14
2018-08-24T06:01:53.037Z,19.18
2018-08-24T06:04:21.919Z,19.25
2018-08-24T06:06:50.378Z,19.36
2018-08-24T06:09:18.957Z,19.48
2018-08-24T06:11:47.676Z,19.57
2018-08-24T06:14:16.185Z,19.68
2018-08-24T06:16:50.199Z,19.77
2018-08-24T06:19:19.323Z,19.80
2018-08-24T06:21:47.742Z,19.81
2018-08-24T06:24:16.165Z,19.85
2018-08-24T06:26:45.710Z,19.87
2018-08-24T06:29:14.206Z,19.92
2018-08-24T06:31:42.636Z,19.99
2018-08-24T06:34:11.686Z,20.00
2018-08-24T06:36:40.101Z,20.08
2018-08-24T06:39:11.125Z,20.16
2018-08-24T06:41:40.072Z,20.22
2018-08-24T06:44:08.601Z,20.32
2018-08-24T06:46:37.037Z,20.44
2018-08-24T06:49:05.662Z,20.53
2018-08-24T06:51:34.162Z,20.63
2018-08-24T06:54:02.668Z,20.67
2018-08-24T06:56:31.233Z,20.77
2018-08-24T06:58:59.669Z,20.93
2018-08-24T07:01:28.118Z,21.10
2018-08-24T07:03:57.008Z,21.23
2018-08-24T07:06:25.424Z,21.42
2018-08-24T07:08:53.836Z,21.70
2018-08-24T07:11:22.577Z,22.00
2018-08-24T07:13:51.152Z,22.25
2018-08-24T07:16:19.913Z,22.57
2018-08-24T07:18:48.470Z,22.71
2018-08-24T07:21:16.892Z,22.97
2018-08-24T07:23:45.329Z,23.35
2018-08-24T07:26:14.785Z,23.62
2018-08-24T07:28:43.964Z,23.89
2018-08-24T07:31:13.268Z,23.98
2018-08-24T07:33:41.955Z,24.03
2018-08-24T07:36:10.417Z,24.36
2018-08-24T07:38:38.843Z,24.59
2018-08-24T07:41:07.953Z,24.88
2018-08-24T07:43:36.373Z,24.84
2018-08-24T07:46:05.275Z,24.85
2018-08-24T07:48:34.069Z,24.79
2018-08-24T07:51:02.486Z,24.57
2018-08-24T07:53:30.897Z,24.58
2018-08-24T07:55:59.877Z,24.81
2018-08-24T07:58:28.296Z,24.89
2018-08-24T08:00:56.709Z,24.89
2018-08-24T08:03:25.311Z,24.86
2018-08-24T08:05:54.066Z,25.02
2018-08-24T08:08:22.502Z,25.44
2018-08-24T08:10:51.045Z,25.88
2018-08-24T08:13:19.461Z,26.09
2018-08-24T08:15:47.887Z,26.00
2018-08-24T08:18:17.076Z,26.17
2018-08-24T08:20:45.506Z,26.08
2018-08-24T08:23:14.253Z,25.69
2018-08-24T08:25:42.809Z,25.62
2018-08-24T08:28:11.257Z,25.29
2018-08-24T08:30:39.689Z,25.55
2018-08-24T08:33:08.221Z,25.84
2018-08-24T08:35:37.036Z,26.33
2018-08-24T08:38:05.457Z,26.63
2018-08-24T08:40:34.002Z,26.34
2018-08-24T08:43:03.304Z,26.17
2018-08-24T08:45:31.742Z,26.07
2018-08-24T08:48:00.316Z,25.86
2018-08-24T08:50:28.761Z,25.85
2018-08-24T08:52:57.921Z,25.92
2018-08-24T08:55:26.461Z,26.40
2018-08-24T08:57:54.877Z,26.40
2018-08-24T09:00:23.322Z,26.33
2018-08-24T09:02:52.206Z,26.31
2018-08-24T09:05:20.637Z,26.26
2018-08-24T09:07:49.221Z,26.64
2018-08-24T09:10:18.542Z,26.72
2018-08-24T09:12:47.220Z,26.74
2018-08-24T09:15:15.641Z,26.72
2018-08-24T09:19:54.749Z,26.78
2018-08-24T09:22:28.293Z,26.41
2018-08-24T09:25:01.947Z,26.54
2018-08-24T09:27:36.844Z,27.03
2018-08-24T09:30:06.287Z,27.01
2018-08-24T09:32:35.145Z,26.79
2018-08-24T09:35:03.466Z,26.68
2018-08-24T09:37:38.783Z,26.68
2018-08-24T09:40:08.037Z,26.75
2018-08-24T09:42:36.564Z,26.90
2018-08-24T09:45:05.901Z,27.37
2018-08-24T09:47:39.425Z,27.32
2018-08-24T09:50:13.441Z,27.68
2018-08-24T09:52:42.281Z,28.32
2018-08-24T09:55:10.853Z,28.71
2018-08-24T09:57:39.641Z,28.72
2018-08-24T10:00:08.193Z,28.67
2018-08-24T10:02:42.646Z,28.20
2018-08-24T10:05:16.392Z,27.96
2018-08-24T10:07:49.478Z,27.45
2018-08-24T10:10:17.928Z,26.91
2018-08-24T10:12:47.185Z,26.67
2018-08-24T10:15:15.698Z,27.00
2018-08-24T10:17:45.077Z,27.22
2018-08-24T10:20:13.984Z,27.24
2018-08-24T10:22:43.072Z,27.60
2018-08-24T10:25:11.521Z,28.36
2018-08-24T10:27:40.345Z,28.78
2018-08-24T10:30:08.879Z,29.08
2018-08-24T10:32:37.399Z,28.96
2018-08-24T10:35:06.071Z,28.40
2018-08-24T10:37:34.528Z,28.35
2018-08-24T10:40:02.961Z,28.29
2018-08-24T10:42:31.497Z,28.42
2018-08-24T10:45:00.102Z,28.61
2018-08-24T10:47:29.149Z,28.86
2018-08-24T10:49:57.696Z,29.04
2018-08-24T10:52:26.177Z,29.09
2018-08-24T10:54:54.606Z,28.94
2018-08-24T10:57:23.748Z,28.68
2018-08-24T10:59:52.203Z,28.35
2018-08-24T11:02:21.123Z,28.20
2018-08-24T11:04:49.625Z,28.01
2018-08-24T11:07:18.151Z,28.42
2018-08-24T11:09:46.563Z,28.66
2018-08-24T11:12:15.327Z,28.77
2018-08-24T11:14:44.404Z,28.75
2018-08-24T11:17:13.361Z,28.63
2018-08-24T11:19:42.024Z,28.63
2018-08-24T11:22:10.470Z,28.82
2018-08-24T11:24:38.901Z,28.85
2018-08-24T11:27:07.410Z,28.94
2018-08-24T11:29:36.041Z,29.02
2018-08-24T11:32:04.470Z,28.96
2018-08-24T11:34:33.034Z,28.83
2018-08-24T11:37:01.925Z,28.66
2018-08-24T11:39:30.376Z,28.33
2018-08-24T11:42:05.886Z,27.86
2018-08-24T11:44:34.485Z,27.86
2018-08-24T11:47:03.050Z,28.03
2018-08-24T11:49:32.801Z,28.10
2018-08-24T11:52:01.501Z,28.53
2018-08-24T11:54:30.088Z,28.63
2018-08-24T11:56:58.648Z,28.35
2018-08-24T11:59:27.343Z,27.69
2018-08-24T12:01:55.770Z,27.31
2018-08-24T12:04:24.209Z,27.28
2018-08-24T12:06:52.978Z,27.35
2018-08-24T12:09:21.410Z,27.32
2018-08-24T12:11:49.881Z,27.09
2018-08-24T12:14:18.749Z,26.95
2018-08-24T12:16:47.197Z,26.73
2018-08-24T12:19:15.668Z,26.73
2018-08-24T12:21:44.460Z,26.97
2018-08-24T12:24:12.781Z,27.18
2018-08-24T12:26:41.290Z,27.09
2018-08-24T12:29:10.525Z,26.70
2018-08-24T12:31:39.010Z,26.37
2018-08-24T12:34:07.549Z,25.95
2018-08-24T12:36:36.361Z,25.52
2018-08-24T12:39:07.253Z,25.31
2018-08-24T12:41:35.694Z,25.25
2018-08-24T12:44:04.471Z,25.33
2018-08-24T12:46:32.889Z,25.19
2018-08-24T12:49:01.355Z,24.92
2018-08-24T12:51:30.801Z,24.69
2018-08-24T12:53:59.222Z,24.62
2018-08-24T12:56:27.678Z,24.50
2018-08-24T12:58:56.284Z,24.36
2018-08-24T13:01:24.728Z,24.18
2018-08-24T13:03:53.177Z,23.99
2018-08-24T13:06:22.021Z,23.94
2018-08-24T13:08:50.461Z,23.95
2018-08-24T13:11:18.996Z,23.76
2018-08-24T13:13:54.221Z,23.63
2018-08-24T13:16:22.701Z,23.39
2018-08-24T13:18:51.749Z,23.28
2018-08-24T13:21:20.597Z,23.27
2018-08-24T13:23:49.057Z,23.26
2018-08-24T13:26:17.695Z,23.22
2018-08-24T13:28:46.361Z,23.13
2018-08-24T13:31:14.809Z,23.09
2018-08-24T13:33:43.505Z,23.10
2018-08-24T13:36:12.652Z,23.05
2018-08-24T13:38:41.224Z,23.05
2018-08-24T13:41:09.875Z,23.08
2018-08-24T13:43:38.545Z,23.08
2018-08-24T13:46:07.026Z,23.07
2018-08-24T13:48:35.609Z,22.70
2018-08-24T13:51:04.134Z,22.84
2018-08-24T13:53:32.862Z,22.82
2018-08-24T13:56:01.287Z,22.72
2018-08-24T13:58:30.349Z,22.76
2018-08-24T14:00:58.832Z,22.73
2018-08-24T14:03:27.268Z,22.86
2018-08-24T14:05:56.016Z,22.96
2018-08-24T14:08:24.505Z,22.89
2018-08-24T14:10:52.943Z,22.85
2018-08-24T14:13:21.723Z,22.67
2018-08-24T14:15:50.336Z,22.60
2018-08-24T14:18:19.118Z,22.60
2018-08-24T14:20:47.636Z,22.67
2018-08-24T14:23:16.130Z,22.71
2018-08-24T14:25:44.640Z,23.63
2018-08-24T14:28:13.893Z,24.36
2018-08-24T14:30:42.477Z,24.35
2018-08-24T14:33:10.922Z,24.49
2018-08-24T14:35:39.449Z,24.98
2018-08-24T14:38:07.983Z,25.19
2018-08-24T14:40:36.402Z,24.96
2018-08-24T14:43:05.054Z,24.74
2018-08-24T14:45:33.534Z,24.39
2018-08-24T14:48:02.000Z,23.95
2018-08-24T14:50:30.628Z,23.60
2018-08-24T14:52:59.142Z,23.23
2018-08-24T14:55:27.734Z,22.93
2018-08-24T14:57:56.565Z,22.84
2018-08-24T15:00:25.038Z,22.66
2018-08-24T15:02:53.486Z,22.52
2018-08-24T15:05:22.769Z,22.38
2018-08-24T15:07:51.234Z,22.27
2018-08-24T15:10:19.695Z,22.58
2018-08-24T15:12:48.382Z,23.11
2018-08-24T15:15:16.881Z,23.92
2018-08-24T15:17:45.318Z,24.23
2018-08-24T15:20:14.788Z,24.42
2018-08-24T15:22:43.241Z,24.40
2018-08-24T15:25:11.682Z,24.37
2018-08-24T15:27:40.277Z,24.63
2018-08-24T15:30:09.121Z,24.86
2018-08-24T15:32:37.602Z,24.87
2018-08-24T15:35:06.612Z,24.26
2018-08-24T15:37:35.073Z,23.98
2018-08-24T15:40:03.533Z,23.69
2018-08-24T15:42:38.745Z,23.45
2018-08-24T15:45:07.336Z,23.19
2018-08-24T15:47:35.816Z,23.11
2018-08-24T15:50:04.531Z,23.05
2018-08-24T15:52:33.001Z,22.98
2018-08-24T15:55:01.461Z,22.79
2018-08-24T15:57:30.226Z,22.55
2018-08-24T15:59:58.806Z,22.29
2018-08-24T16:02:27.249Z,22.20
2018-08-24T16:04:55.797Z,22.21
2018-08-24T16:07:24.313Z,21.99
2018-08-24T16:09:52.778Z,21.94
2018-08-24T16:12:21.348Z,21.90
2018-08-24T16:14:49.785Z,21.92
2018-08-24T16:17:18.209Z,21.97
2018-08-24T16:19:46.833Z,21.82
2018-08-24T16:22:15.247Z,21.59
2018-08-24T16:24:44.381Z,21.47
2018-08-24T16:27:17.593Z,21.45
2018-08-24T16:29:46.210Z,21.46
2018-08-24T16:32:15.470Z,21.40
2018-08-24T16:34:43.957Z,21.25
2018-08-24T16:37:13.034Z,21.25
2018-08-24T16:39:41.537Z,21.25
2018-08-24T16:42:10.005Z,21.25
2018-08-24T16:44:38.418Z,21.21
2018-08-24T16:47:06.939Z,21.14
2018-08-24T16:49:35.610Z,21.18
2018-08-24T16:52:04.033Z,21.17
2018-08-24T16:54:32.533Z,21.04
2018-08-24T16:57:01.041Z,20.92
2018-08-24T16:59:29.705Z,20.90
2018-08-24T17:01:58.294Z,20.90
2018-08-24T17:04:26.781Z,20.82
2018-08-24T17:06:55.205Z,20.76
2018-08-24T17:09:23.969Z,20.60
2018-08-24T17:11:52.513Z,20.62
2018-08-24T17:14:20.938Z,20.68
2018-08-24T17:16:49.698Z,20.58
2018-08-24T17:19:18.216Z,20.44
2018-08-24T17:21:46.645Z,20.34
2018-08-24T17:24:21.905Z,20.31
2018-08-24T17:26:50.335Z,20.24
2018-08-24T17:29:18.976Z,20.23
2018-08-24T17:31:47.697Z,20.21
2018-08-24T17:34:17.519Z,20.19
2018-08-24T17:36:46.673Z,20.10
2018-08-24T17:39:15.234Z,20.06
2018-08-24T17:41:44.171Z,20.07
2018-08-24T17:44:12.709Z,20.05
2018-08-24T17:46:41.800Z,19.99
2018-08-24T17:49:10.215Z,19.99
2018-08-24T17:51:38.773Z,20.02
2018-08-24T17:54:07.781Z,20.10
2018-08-24T17:56:36.224Z,20.16
2018-08-24T17:59:05.323Z,20.19
2018-08-24T18:01:34.357Z,20.21
2018-08-24T18:04:02.797Z,20.19
2018-08-24T18:06:31.233Z,20.18
2018-08-24T18:09:00.481Z,20.20
2018-08-24T18:11:28.904Z,20.18
2018-08-24T18:13:57.365Z,20.14
2018-08-24T18:16:26.005Z,20.14
2018-08-24T18:18:54.417Z,20.16
2018-08-24T18:21:22.854Z,20.16
2018-08-24T18:23:51.619Z,20.15
2018-08-24T18:26:26.630Z,20.09
2018-08-24T18:28:55.970Z,20.02
2018-08-24T18:31:24.408Z,20.00
2018-08-24T18:33:52.877Z,19.98
2018-08-24T18:36:22.030Z,19.89
2018-08-24T18:38:50.471Z,19.82
2018-08-24T18:41:18.894Z,19.81
2018-08-24T18:43:47.537Z,19.77
2018-08-24T18:46:16.194Z,19.71
2018-08-24T18:48:44.733Z,19.64
2018-08-24T18:51:13.584Z,19.50
2018-08-24T18:53:42.059Z,19.30
2018-08-24T18:56:10.489Z,18.89
2018-08-24T18:58:39.355Z,18.11
2018-08-24T19:01:07.798Z,17.21
2018-08-24T19:03:36.411Z,16.52
2018-08-24T19:06:05.110Z,16.01
2018-08-24T19:08:33.534Z,15.63
2018-08-24T19:11:07.347Z,15.40
2018-08-24T19:13:35.898Z,15.25
2018-08-24T19:16:04.362Z,15.14
2018-08-24T19:18:38.233Z,15.06
2018-08-24T19:21:11.885Z,15.02
2018-08-24T19:23:40.685Z,15.01
2018-08-24T19:26:09.134Z,15.01
2018-08-24T19:28:43.667Z,14.99
2018-08-24T19:31:12.618Z,14.98
2018-08-24T19:33:42.165Z,14.98
2018-08-24T19:36:10.653Z,14.94
2018-08-24T19:38:39.590Z,14.94
2018-08-24T19:41:13.265Z,14.92
2018-08-24T19:43:42.078Z,14.93
2018-08-24T19:46:10.497Z,14.90
2018-08-24T19:48:44.093Z,14.94
2018-08-24T19:51:12.853Z,14.96
2018-08-24T19:53:41.513Z,14.95
2018-08-24T19:56:09.973Z,14.89
2018-08-24T19:58:43.784Z,14.89
2018-08-24T20:01:12.303Z,14.87
2018-08-24T20:03:40.969Z,14.80
2018-08-24T20:06:14.509Z,14.81
2018-08-24T20:08:48.145Z,14.80
2018-08-24T20:11:16.773Z,14.79
2018-08-24T20:13:45.715Z,14.77
2018-08-24T20:16:19.545Z,14.74
2018-08-24T20:18:48.154Z,14.72
2018-08-24T20:21:16.573Z,14.68
2018-08-24T20:23:45.927Z,14.67
2018-08-24T20:26:15.228Z,14.66
2018-08-24T20:28:43.715Z,14.67
2018-08-24T20:31:12.173Z,14.64
2018-08-24T20:33:40.788Z,14.62
2018-08-24T20:36:09.362Z,14.59
2018-08-24T20:38:37.810Z,14.57
2018-08-24T20:41:06.981Z,14.56
2018-08-24T20:43:35.450Z,14.53
2018-08-24T20:46:03.913Z,14.52
2018-08-24T20:48:32.867Z,14.49
2018-08-24T20:51:01.542Z,14.47
2018-08-24T20:53:30.091Z,14.46
2018-08-24T20:55:58.613Z,14.33
2018-08-24T20:58:27.041Z,14.42
2018-08-24T21:00:55.513Z,14.41
2018-08-24T21:03:24.269Z,14.39
2018-08-24T21:05:53.049Z,14.37
2018-08-24T21:08:21.454Z,14.34
2018-08-24T21:10:50.324Z,14.33
2018-08-24T21:13:18.788Z,14.33
2018-08-24T21:15:47.260Z,14.33
2018-08-24T21:18:16.194Z,14.30
2018-08-24T21:20:44.845Z,14.29
2018-08-24T21:23:13.442Z,14.28
2018-08-24T21:25:42.091Z,14.26
2018-08-24T21:28:10.545Z,14.24
2018-08-24T21:30:39.001Z,14.25
2018-08-24T21:33:07.610Z,14.24
2018-08-24T21:35:36.046Z,14.22
2018-08-24T21:38:04.601Z,14.21
2018-08-24T21:40:33.339Z,14.19
2018-08-24T21:43:01.966Z,14.18
2018-08-24T21:45:30.437Z,14.15
2018-08-24T21:47:59.169Z,14.14
2018-08-24T21:50:28.186Z,14.12
2018-08-24T21:52:56.674Z,14.09
2018-08-24T21:55:25.529Z,14.10
2018-08-24T21:57:54.026Z,14.07
2018-08-24T22:00:24.365Z,14.04
2018-08-24T22:02:52.877Z,14.03
2018-08-24T22:05:21.310Z,14.01
2018-08-24T22:07:50.007Z,14.00
2018-08-24T22:10:18.869Z,13.98
2018-08-24T22:12:47.367Z,13.96
2018-08-24T22:15:15.881Z,13.93
2018-08-24T22:17:44.467Z,13.89
2018-08-24T22:20:12.897Z,13.88
2018-08-24T22:22:41.387Z,13.85
2018-08-24T22:25:10.296Z,13.82
2018-08-24T22:27:38.713Z,13.79
2018-08-24T22:30:07.229Z,13.78
2018-08-24T22:32:36.022Z,13.78
2018-08-24T22:35:04.519Z,13.76
2018-08-24T22:37:33.226Z,13.74
2018-08-24T22:40:01.771Z,13.73
2018-08-24T22:42:30.219Z,13.71
2018-08-24T22:44:59.101Z,13.68
2018-08-24T22:47:28.137Z,13.67
2018-08-24T22:49:56.573Z,13.67
2018-08-24T22:52:25.121Z,13.66
2018-08-24T22:54:53.894Z,13.64
2018-08-24T22:57:22.329Z,13.63
2018-08-24T22:59:50.853Z,13.61
2018-08-24T23:02:19.637Z,13.59
2018-08-24T23:04:48.077Z,13.57
2018-08-24T23:07:16.889Z,13.55
2018-08-24T23:09:45.990Z,13.52
2018-08-24T23:12:14.589Z,13.50
2018-08-24T23:14:43.101Z,13.48
2018-08-24T23:17:11.769Z,13.48
2018-08-24T23:19:40.540Z,13.48
2018-08-24T23:22:09.113Z,13.45
2018-08-24T23:24:37.798Z,13.42
2018-08-24T23:27:07.197Z,13.42
2018-08-24T23:29:35.685Z,13.43
2018-08-24T23:32:04.484Z,13.41
2018-08-24T23:34:32.949Z,13.25
2018-08-24T23:37:01.421Z,13.42
2018-08-24T23:39:30.480Z,13.44
2018-08-24T23:41:58.924Z,13.43
2018-08-24T23:44:27.421Z,13.43
2018-08-24T23:46:56.541Z,13.43
2018-08-24T23:49:24.983Z,13.43
2018-08-24T23:51:53.465Z,13.44
2018-08-24T23:54:22.337Z,13.45
2018-08-24T23:56:50.791Z,13.44
2018-08-24T23:59:19.253Z,13.45
